^^
Station Historical Data
Daily Summary for August 1, 2021 Units:  English    Metric   Both
Daily Weekly Monthly Yearly
  High: Low: Average:
Temperature: 69.8 °F 64.1 °F 66 °F
Dew Point: 62.7 °F 58.8 °F 60.8 °F
Humidity: 89% 70% 84%
Wind Speed: 6mph 0mph 3.1mph
Wind Gust: 11mph - -
Wind- - SSW
Pressure: 29.90 in 29.80 in -
Precipitation: 0.04 in    
 
 
Tabular Data for August 1, 2021
Time Temperature Dew Point Pressure Wind Wind Speed Wind Gust Humidity Rainfall Rate (Hourly) solar
00:00 65.1 °F 61.5 °F 29.84 in North 1 mph 1 mph 88% 0.00 in 0 W/m2
00:05 65.1 °F 61.5 °F 29.84 in East 1 mph 1 mph 88% 0.00 in 0 W/m2
00:10 65.1 °F 61.5 °F 29.83 in East 1 mph 1 mph 88% 0.00 in 0 W/m2
00:15 65.1 °F 61.5 °F 29.83 in Calm   1 mph 88% 0.00 in 0 W/m2
00:20 65.2 °F 61.6 °F 29.83 in Calm     88% 0.00 in 0 W/m2
00:25 65.2 °F 61.9 °F 29.83 in East 1 mph 1 mph 89% 0.00 in 0 W/m2
00:30 65.2 °F 61.9 °F 29.83 in NE 1 mph 1 mph 89% 0.00 in 0 W/m2
00:35 65.3 °F 62 °F 29.83 in East 1 mph 1 mph 89% 0.00 in 0 W/m2
00:40 65.3 °F 62 °F 29.83 in Calm     89% 0.00 in 0 W/m2
00:45 65.3 °F 62 °F 29.83 in Calm     89% 0.00 in 0 W/m2
00:50 65.4 °F 62.1 °F 29.83 in Calm   1 mph 89% 0.00 in 0 W/m2
00:55 65.4 °F 62.1 °F 29.83 in East 1 mph 1 mph 89% 0.00 in 0 W/m2
01:00 65.5 °F 62.2 °F 29.83 in Calm     89% 0.00 in 0 W/m2
01:05 65.4 °F 62.1 °F 29.83 in Calm     89% 0.00 in 0 W/m2
01:10 65.5 °F 62.2 °F 29.83 in Calm     89% 0.00 in 0 W/m2
01:15 65.5 °F 62.2 °F 29.83 in Calm   1 mph 89% 0.00 in 0 W/m2
01:20 65.5 °F 61.9 °F 29.82 in NW 1 mph 2 mph 88% 0.00 in 0 W/m2
01:25 65.6 °F 61.9 °F 29.82 in WSW 2 mph 2 mph 88% 0.00 in 0 W/m2
01:30 65.6 °F 61.9 °F 29.82 in East 2 mph 2 mph 88% 0.00 in 0 W/m2
01:35 65.6 °F 61.9 °F 29.82 in East 1 mph 2 mph 88% 0.00 in 0 W/m2
01:40 65.5 °F 61.9 °F 29.82 in Calm     88% 0.00 in 0 W/m2
01:45 65.6 °F 61.9 °F 29.82 in Calm   1 mph 88% 0.00 in 0 W/m2
01:50 65.5 °F 61.9 °F 29.82 in Calm     88% 0.00 in 0 W/m2
01:55 65.5 °F 61.9 °F 29.82 in Calm   1 mph 88% 0.00 in 0 W/m2
02:00 65.7 °F 61.7 °F 29.82 in Calm   1 mph 87% 0.00 in 0 W/m2
02:05 65.9 °F 61.9 °F 29.82 in Calm   1 mph 87% 0.00 in 0 W/m2
02:10 66.2 °F 62.2 °F 29.82 in Calm     87% 0.00 in 0 W/m2
02:15 66.5 °F 62.5 °F 29.82 in Calm   1 mph 87% 0.00 in 0 W/m2
02:20 66.6 °F 62.6 °F 29.82 in West 1 mph 1 mph 87% 0.00 in 0 W/m2
02:25 66.6 °F 62.3 °F 29.81 in NE 1 mph 1 mph 86% 0.00 in 0 W/m2
02:30 66.7 °F 62.4 °F 29.81 in East 1 mph 1 mph 86% 0.00 in 0 W/m2
02:35 66.7 °F 62 °F 29.81 in ENE 1 mph 1 mph 85% 0.00 in 0 W/m2
02:40 66.8 °F 61.8 °F 29.81 in NE 1 mph 1 mph 84% 0.00 in 0 W/m2
02:45 66.9 °F 61.9 °F 29.81 in Calm   1 mph 84% 0.00 in 0 W/m2
02:50 67.1 °F 62.4 °F 29.80 in Calm     85% 0.00 in 0 W/m2
02:55 67 °F 62 °F 29.80 in Calm     84% 0.00 in 0 W/m2
03:00 67 °F 62 °F 29.80 in Calm     84% 0.00 in 0 W/m2
03:05 67 °F 62.3 °F 29.80 in Calm     85% 0.00 in 0 W/m2
03:10 67 °F 62.3 °F 29.80 in Calm   1 mph 85% 0.00 in 0 W/m2
03:15 67 °F 62.3 °F 29.80 in Calm   1 mph 85% 0.00 in 0 W/m2
03:20 67 °F 62.3 °F 29.80 in Calm     85% 0.00 in 0 W/m2
03:25 67 °F 62.3 °F 29.80 in Calm   1 mph 85% 0.00 in 0 W/m2
03:30 66.9 °F 62.2 °F 29.80 in Calm     85% 0.00 in 0 W/m2
03:35 66.9 °F 62.6 °F 29.80 in Calm     86% 0.00 in 0 W/m2
03:40 67 °F 62.7 °F 29.80 in Calm   1 mph 86% 0.00 in 0 W/m2
03:45 67 °F 62.7 °F 29.80 in Calm   2 mph 86% 0.00 in 0 W/m2
03:50 67 °F 62.7 °F 29.80 in West 1 mph 2 mph 86% 0.00 in 0 W/m2
03:55 66.9 °F 62.6 °F 29.80 in NNE 2 mph 2 mph 86% 0.00 in 0 W/m2
04:00 66.8 °F 62.5 °F 29.80 in NW 2 mph 2 mph 86% 0.00 in 0 W/m2
04:05 66.8 °F 62.5 °F 29.80 in NW 2 mph 4 mph 86% 0.00 in 0 W/m2
04:10 66.7 °F 62.4 °F 29.80 in NNW 3 mph 4 mph 86% 0.00 in 0 W/m2
04:15 66.6 °F 62.3 °F 29.80 in North 4 mph 4 mph 86% 0.00 in 0 W/m2
04:20 66.6 °F 62.3 °F 29.80 in WNW 4 mph 4 mph 86% 0.00 in 0 W/m2
04:25 66.6 °F 62.3 °F 29.80 in NW 4 mph 4 mph 86% 0.00 in 0 W/m2
04:30 66.6 °F 62.3 °F 29.80 in NNW 4 mph 4 mph 86% 0.00 in 0 W/m2
04:35 66.6 °F 62.3 °F 29.80 in WSW 4 mph 5 mph 86% 0.00 in 0 W/m2
04:40 66.5 °F 62.2 °F 29.80 in NW 4 mph 6 mph 86% 0.00 in 0 W/m2
04:45 66.5 °F 62.2 °F 29.80 in NNW 4 mph 8 mph 86% 0.00 in 0 W/m2
04:50 66.6 °F 62.3 °F 29.80 in West 4 mph 4 mph 86% 0.00 in 0 W/m2
04:55 66.5 °F 62.2 °F 29.80 in NNW 5 mph 6 mph 86% 0.00 in 0 W/m2
05:00 66.3 °F 62 °F 29.80 in NW 5 mph 5 mph 86% 0.00 in 0 W/m2
05:05 66.3 °F 62 °F 29.80 in WNW 5 mph 5 mph 86% 0.00 in 0 W/m2
05:10 66.2 °F 61.9 °F 29.80 in WNW 4 mph 4 mph 86% 0.00 in 0 W/m2
05:15 66.1 °F 61.8 °F 29.80 in NNW 3 mph 4 mph 86% 0.00 in 0 W/m2
05:20 66.1 °F 61.8 °F 29.80 in North 3 mph 5 mph 86% 0.00 in 0 W/m2
05:25 66 °F 61.7 °F 29.80 in North 4 mph 5 mph 86% 0.00 in 0 W/m2
05:30 66 °F 61.7 °F 29.80 in NW 4 mph 5 mph 86% 0.00 in 0 W/m2
05:35 65.9 °F 61.6 °F 29.80 in West 4 mph 5 mph 86% 0.00 in 0 W/m2
05:40 65.9 °F 61.6 °F 29.80 in NW 4 mph 6 mph 86% 0.00 in 0 W/m2
05:45 65.8 °F 61.5 °F 29.81 in NNW 4 mph 6 mph 86% 0.00 in 0 W/m2
05:50 65.8 °F 61.5 °F 29.81 in NW 4 mph 5 mph 86% 0.00 in 0 W/m2
05:55 65.8 °F 61.8 °F 29.81 in WNW 4 mph 5 mph 87% 0.00 in 0 W/m2
06:00 65.6 °F 61.3 °F 29.81 in NE 4 mph 5 mph 86% 0.00 in 0 W/m2
06:05 65.6 °F 61.3 °F 29.81 in NNW 4 mph 6 mph 86% 0.00 in 0 W/m2
06:10 65.4 °F 61.1 °F 29.81 in North 4 mph 4 mph 86% 0.00 in 0 W/m2
06:15 65.3 °F 61 °F 29.81 in NNE 4 mph 4 mph 86% 0.00 in 0 W/m2
06:20 65.3 °F 61 °F 29.81 in West 4 mph 4 mph 86% 0.00 in 0 W/m2
06:25 65.1 °F 60.8 °F 29.81 in North 4 mph 8 mph 86% 0.00 in 0 W/m2
06:30 65 °F 60.7 °F 29.82 in North 5 mph 5 mph 86% 0.00 in 5 W/m2
06:35 64.9 °F 60.6 °F 29.82 in WNW 4 mph 5 mph 86% 0.00 in 5 W/m2
06:40 64.8 °F 60.5 °F 29.82 in North 3 mph 3 mph 86% 0.00 in 7 W/m2
06:45 64.7 °F 60.4 °F 29.82 in NNW 4 mph 5 mph 86% 0.00 in 11 W/m2
06:50 64.6 °F 60.3 °F 29.82 in NW 5 mph 5 mph 86% 0.00 in 19 W/m2
06:55 64.5 °F 60.2 °F 29.82 in WNW 4 mph 5 mph 86% 0.00 in 23 W/m2
07:00 64.4 °F 60.1 °F 29.83 in NNW 4 mph 8 mph 86% 0.00 in 32 W/m2
07:05 64.5 °F 60.2 °F 29.83 in North 4 mph 8 mph 86% 0.00 in 42 W/m2
07:10 64.4 °F 60.1 °F 29.83 in SSE 4 mph 4 mph 86% 0.00 in 54 W/m2
07:15 64.3 °F 59.7 °F 29.83 in North 4 mph 5 mph 85% 0.00 in 62 W/m2
07:20 64.3 °F 60 °F 29.83 in NNE 3 mph 3 mph 86% 0.00 in 70 W/m2
07:25 64.3 °F 59.7 °F 29.83 in West 4 mph 4 mph 85% 0.00 in 72 W/m2
07:30 64.2 °F 59.6 °F 29.83 in North 4 mph 6 mph 85% 0.00 in 56 W/m2
07:35 64.3 °F 59.7 °F 29.83 in NW 5 mph 8 mph 85% 0.00 in 63 W/m2
07:40 64.2 °F 59.6 °F 29.83 in North 5 mph 5 mph 85% 0.00 in 58 W/m2
07:45 64.2 °F 59.3 °F 29.84 in WNW 5 mph 5 mph 84% 0.00 in 44 W/m2
07:50 64.2 °F 59.3 °F 29.84 in NNW 5 mph 5 mph 84% 0.00 in 51 W/m2
07:55 64.2 °F 59.6 °F 29.84 in NNE 4 mph 5 mph 85% 0.00 in 67 W/m2
08:00 64.3 °F 59.7 °F 29.84 in NW 4 mph 6 mph 85% 0.00 in 46 W/m2
08:05 64.2 °F 59.3 °F 29.84 in WNW 4 mph 6 mph 84% 0.00 in 79 W/m2
08:10 64.1 °F 59.2 °F 29.84 in NNW 5 mph 5 mph 84% 0.00 in 77 W/m2
08:15 64.1 °F 59.2 °F 29.84 in NNW 5 mph 7 mph 84% 0.00 in 105 W/m2
08:20 64.1 °F 59.2 °F 29.84 in NNE 4 mph 4 mph 84% 0.00 in 132 W/m2
08:25 64.1 °F 58.8 °F 29.84 in North 4 mph 5 mph 83% 0.00 in 195 W/m2
08:30 64.2 °F 59.3 °F 29.84 in NE 5 mph 5 mph 84% 0.00 in 123 W/m2
08:35 64.3 °F 59 °F 29.84 in NNW 5 mph 5 mph 83% 0.00 in 227 W/m2
08:40 64.5 °F 59.6 °F 29.84 in North 4 mph 4 mph 84% 0.00 in 176 W/m2
08:45 64.5 °F 59.6 °F 29.84 in NNW 4 mph 9 mph 84% 0.00 in 221 W/m2
08:50 64.6 °F 59.3 °F 29.84 in WSW 4 mph 4 mph 83% 0.00 in 130 W/m2
08:55 64.6 °F 59.3 °F 29.84 in NE 4 mph 4 mph 83% 0.00 in 127 W/m2
09:00 64.6 °F 59 °F 29.84 in NNE 4 mph 9 mph 82% 0.00 in 134 W/m2
09:05 64.5 °F 58.9 °F 29.85 in NNW 5 mph 9 mph 82% 0.00 in 139 W/m2
09:10 64.5 °F 58.9 °F 29.84 in NNW 5 mph 5 mph 82% 0.00 in 155 W/m2
09:15 64.5 °F 59.2 °F 29.84 in NNE 5 mph 11 mph 83% 0.00 in 176 W/m2
09:20 64.6 °F 59.3 °F 29.84 in NW 4 mph 4 mph 83% 0.00 in 362 W/m2
09:25 64.6 °F 59.3 °F 29.84 in NNW 4 mph 5 mph 83% 0.00 in 155 W/m2
09:30 64.7 °F 59.1 °F 29.84 in NE 4 mph 4 mph 82% 0.00 in 174 W/m2
09:35 64.6 °F 59 °F 29.84 in NE 5 mph 7 mph 82% 0.00 in 267 W/m2
09:40 64.7 °F 59.1 °F 29.84 in WNW 5 mph 7 mph 82% 0.00 in 415 W/m2
09:45 64.8 °F 59.2 °F 29.85 in NNW 4 mph 7 mph 82% 0.00 in 436 W/m2
09:50 64.9 °F 59.3 °F 29.85 in North 4 mph 4 mph 82% 0.00 in 445 W/m2
09:55 65 °F 59.4 °F 29.85 in NNW 4 mph 6 mph 82% 0.00 in 243 W/m2
10:00 65.1 °F 59.5 °F 29.85 in North 5 mph 7 mph 82% 0.00 in 204 W/m2
10:10 65.4 °F 59.8 °F 29.85 in NNE 3 mph 4 mph 82% 0.00 in 285 W/m2
10:15 65.4 °F 59.4 °F 29.85 in NW 4 mph 11 mph 81% 0.00 in 229 W/m2
10:20 65.6 °F 59.6 °F 29.85 in NNW 4 mph 4 mph 81% 0.00 in 248 W/m2
10:25 65.7 °F 59.7 °F 29.85 in NNW 4 mph 4 mph 81% 0.00 in 183 W/m2
10:30 65.7 °F 59.4 °F 29.85 in NNW 4 mph 4 mph 80% 0.00 in 703 W/m2
10:35 65.8 °F 59.5 °F 29.86 in WNW 4 mph 6 mph 80% 0.00 in 195 W/m2
10:40 66 °F 59.3 °F 29.86 in NE 4 mph 4 mph 79% 0.00 in 710 W/m2
10:45 66.2 °F 59.8 °F 29.86 in North 4 mph 6 mph 80% 0.00 in 244 W/m2
10:50 66.3 °F 59.6 °F 29.86 in NNW 5 mph 5 mph 79% 0.00 in 369 W/m2
10:55 66.3 °F 59.2 °F 29.86 in WNW 5 mph 5 mph 78% 0.00 in 596 W/m2
11:00 66.5 °F 59.4 °F 29.86 in West 4 mph 4 mph 78% 0.00 in 621 W/m2
11:05 66.7 °F 59.6 °F 29.86 in NNE 3 mph 4 mph 78% 0.00 in 668 W/m2
11:10 66.9 °F 59.8 °F 29.87 in NNE 4 mph 8 mph 78% 0.00 in 664 W/m2
11:15 67.1 °F 60 °F 29.87 in East 5 mph 8 mph 78% 0.00 in 722 W/m2
11:20 67.2 °F 59.7 °F 29.87 in WSW 5 mph 6 mph 77% 0.00 in 299 W/m2
11:25 67.3 °F 59.8 °F 29.88 in North 5 mph 9 mph 77% 0.00 in 770 W/m2
11:30 67.5 °F 59.7 °F 29.88 in NNW 5 mph 9 mph 76% 0.00 in 761 W/m2
11:35 67.6 °F 59.8 °F 29.88 in NNE 5 mph 9 mph 76% 0.00 in 694 W/m2
11:40 67.8 °F 59.6 °F 29.88 in NW 5 mph 6 mph 75% 0.00 in 719 W/m2
11:45 67.9 °F 59.7 °F 29.88 in North 5 mph 10 mph 75% 0.00 in 724 W/m2
11:50 68.2 °F 60 °F 29.88 in NW 5 mph 7 mph 75% 0.00 in 733 W/m2
11:55 68.4 °F 60.2 °F 29.88 in NW 5 mph 7 mph 75% 0.00 in 772 W/m2
12:00 68.6 °F 60 °F 29.88 in North 4 mph 4 mph 74% 0.00 in 861 W/m2
12:05 68.8 °F 60.2 °F 29.88 in NW 4 mph 5 mph 74% 0.00 in 213 W/m2
12:10 68.9 °F 59.9 °F 29.88 in NW 4 mph 10 mph 73% 0.00 in 858 W/m2
12:15 69 °F 60 °F 29.88 in SE 4 mph 10 mph 73% 0.00 in 911 W/m2
12:20 69.2 °F 59.8 °F 29.88 in NE 4 mph 4 mph 72% 0.00 in 230 W/m2
12:25 69.2 °F 59.8 °F 29.88 in North 4 mph 4 mph 72% 0.00 in 817 W/m2
12:30 69.7 °F 60.3 °F 29.88 in NE 4 mph 4 mph 72% 0.00 in 817 W/m2
12:35 69.8 °F 59.6 °F 29.88 in East 4 mph 4 mph 70% 0.00 in 255 W/m2
12:40 69.6 °F 60.6 °F 29.88 in NE 4 mph 4 mph 73% 0.00 in 418 W/m2
12:45 69 °F 60 °F 29.88 in ESE 4 mph 4 mph 73% 0.00 in 216 W/m2
12:50 68.7 °F 60.1 °F 29.89 in NNW 4 mph 6 mph 74% 0.00 in 42 W/m2
12:55 67.7 °F 59.1 °F 29.89 in NE 5 mph 6 mph 74% 0.00 in 30 W/m2
13:00 66.8 °F 60.1 °F 29.88 in North 5 mph 7 mph 79% 0.16 in 26 W/m2
13:05 65.8 °F 59.5 °F 29.90 in NE 6 mph 7 mph 80% 0.34 in 44 W/m2
Sand Point, Michigan, USA
Compliments of Weather Underground - 2 mb